Time;durP1;ratioP1;P1;durP2;ratioP2;P2;SDS_P1;SDS_P2;PMS_P1;PMS_P2;Temp;Humidity;BMP_temperature;BMP_pressure;BME280_temperature;BME280_humidity;BME280_pressure;Samples;Min_cycle;Max_cycle;Signal;HPM_P1;HPM_P2
2021/06/19 00:00:41;;;;;;;21.73;19.40;;;;;;;;;;1497345;39;20039;-57
2021/06/19 00:01:42;;;;;;;22.30;20.00;;;;;;;;;;1497169;39;20050;-56
2021/06/19 00:02:44;;;;;;;21.65;18.98;;;;;;;;;;1497206;39;20028;-57
2021/06/19 00:03:45;;;;;;;23.55;21.05;;;;;;;;;;1497149;39;20294;-57
2021/06/19 00:04:47;;;;;;;22.90;20.48;;;;;;;;;;1497159;39;20028;-55
2021/06/19 00:05:49;;;;;;;23.33;20.27;;;;;;;;;;1497220;39;20034;-57
2021/06/19 00:06:49;;;;;;;22.58;19.90;;;;;;;;;;1497163;39;20034;-57
2021/06/19 00:07:52;;;;;;;26.27;21.77;;;;;;;;;;1497264;39;20027;-58
2021/06/19 00:08:52;;;;;;;27.25;21.95;;;;;;;;;;1497039;39;20035;-57
2021/06/19 00:09:54;;;;;;;25.63;22.92;;;;;;;;;;1497133;39;20402;-57
2021/06/19 00:10:55;;;;;;;26.20;21.58;;;;;;;;;;1497097;39;20023;-56
2021/06/19 00:11:58;;;;;;;24.20;21.58;;;;;;;;;;1497080;39;20040;-56
2021/06/19 00:12:59;;;;;;;24.48;20.90;;;;;;;;;;1497112;39;20027;-57
2021/06/19 00:14:02;;;;;;;26.13;21.48;;;;;;;;;;1497105;39;20023;-56
2021/06/19 00:15:06;;;;;;;24.52;21.15;;;;;;;;;;1497072;39;20028;-58
2021/06/19 00:16:08;;;;;;;27.00;21.70;;;;;;;;;;1497108;39;20468;-58
2021/06/19 00:17:09;;;;;;;24.23;20.60;;;;;;;;;;1497141;39;20107;-57
2021/06/19 00:18:11;;;;;;;24.52;21.40;;;;;;;;;;1497143;39;20027;-57
2021/06/19 00:19:12;;;;;;;24.45;20.45;;;;;;;;;;1497127;39;20043;-56
2021/06/19 00:20:16;;;;;;;23.88;21.23;;;;;;;;;;1497306;39;20023;-57
2021/06/19 00:21:17;;;;;;;26.50;22.05;;;;;;;;;;1497245;39;20105;-58
2021/06/19 00:22:19;;;;;;;24.40;21.83;;;;;;;;;;1496618;39;20121;-57
2021/06/19 00:23:21;;;;;;;26.52;22.58;;;;;;;;;;1496752;39;20089;-58
2021/06/19 00:24:23;;;;;;;30.48;22.80;;;;;;;;;;1497309;39;20027;-58
2021/06/19 00:25:27;;;;;;;24.40;21.90;;;;;;;;;;1497267;39;20043;-57
2021/06/19 00:26:27;;;;;;;27.60;23.35;;;;;;;;;;1497120;39;20111;-58
2021/06/19 00:27:29;;;;;;;25.50;22.20;;;;;;;;;;1497292;39;20096;-58
2021/06/19 00:28:30;;;;;;;28.67;22.85;;;;;;;;;;1497052;39;20380;-58
2021/06/19 00:29:33;;;;;;;26.95;23.20;;;;;;;;;;1497294;39;20028;-56
2021/06/19 00:30:34;;;;;;;24.95;22.05;;;;;;;;;;1497107;39;20031;-58
2021/06/19 00:31:47;;;;;;;27.25;23.55;;;;;;;;;;1497067;39;20071;-57
2021/06/19 00:32:48;;;;;;;27.58;24.05;;;;;;;;;;1497241;39;20043;-57
2021/06/19 00:33:50;;;;;;;26.17;23.00;;;;;;;;;;1497218;39;20038;-57
2021/06/19 00:34:51;;;;;;;26.77;23.02;;;;;;;;;;1497092;39;20032;-57
2021/06/19 00:35:52;;;;;;;27.05;23.30;;;;;;;;;;1497140;39;20030;-57
2021/06/19 00:36:53;;;;;;;25.73;22.92;;;;;;;;;;1497252;39;20028;-56
2021/06/19 00:37:55;;;;;;;31.25;23.90;;;;;;;;;;1497272;39;20031;-57
2021/06/19 00:38:56;;;;;;;28.80;23.60;;;;;;;;;;1496521;39;20038;-57
2021/06/19 00:39:58;;;;;;;30.17;24.48;;;;;;;;;;1496736;39;20032;-57
2021/06/19 00:40:59;;;;;;;28.33;24.42;;;;;;;;;;1497249;39;20071;-58
2021/06/19 00:42:00;;;;;;;29.40;23.70;;;;;;;;;;1497038;39;20297;-57
2021/06/19 00:43:03;;;;;;;27.15;24.27;;;;;;;;;;1497261;39;20031;-57
2021/06/19 00:44:06;;;;;;;31.15;24.13;;;;;;;;;;1497230;39;20035;-57
2021/06/19 00:45:09;;;;;;;33.90;26.05;;;;;;;;;;1497280;39;20027;-57
2021/06/19 00:46:11;;;;;;;29.20;24.48;;;;;;;;;;1497023;39;20032;-57
2021/06/19 00:47:12;;;;;;;28.00;25.08;;;;;;;;;;1497204;39;20064;-58
2021/06/19 00:48:14;;;;;;;31.02;24.65;;;;;;;;;;1497148;39;20027;-58
2021/06/19 00:49:15;;;;;;;29.20;24.90;;;;;;;;;;1497051;39;20276;-58
2021/06/19 00:50:17;;;;;;;29.67;24.63;;;;;;;;;;1497208;39;20063;-58
2021/06/19 00:51:18;;;;;;;27.02;24.17;;;;;;;;;;1497020;39;20049;-57
2021/06/19 00:52:20;;;;;;;27.83;23.67;;;;;;;;;;1496964;39;20385;-57
2021/06/19 00:53:21;;;;;;;28.92;24.60;;;;;;;;;;1497203;39;20035;-57
2021/06/19 00:54:23;;;;;;;27.55;22.23;;;;;;;;;;1496992;39;20043;-57
2021/06/19 00:55:24;;;;;;;28.20;24.17;;;;;;;;;;1496968;39;20032;-57
2021/06/19 00:56:26;;;;;;;28.40;23.05;;;;;;;;;;1496979;39;20403;-58
2021/06/19 00:57:27;;;;;;;28.15;23.30;;;;;;;;;;1497189;39;20027;-58
2021/06/19 00:58:30;;;;;;;27.73;23.83;;;;;;;;;;1496912;39;20391;-57
2021/06/19 00:59:31;;;;;;;26.90;23.95;;;;;;;;;;1496997;39;20410;-57
2021/06/19 01:00:34;;;;;;;28.38;23.52;;;;;;;;;;1497000;39;20038;-58
2021/06/19 01:01:36;;;;;;;27.17;24.02;;;;;;;;;;1497242;39;20023;-58
2021/06/19 01:02:39;;;;;;;27.35;23.88;;;;;;;;;;1497029;39;20389;-58
2021/06/19 01:03:41;;;;;;;26.38;23.55;;;;;;;;;;1496868;39;20032;-57
2021/06/19 01:04:43;;;;;;;27.27;24.25;;;;;;;;;;1497279;39;20063;-57
2021/06/19 01:05:44;;;;;;;27.27;23.65;;;;;;;;;;1496940;39;20306;-57
2021/06/19 01:06:46;;;;;;;28.27;23.48;;;;;;;;;;1497166;39;20028;-56
2021/06/19 01:07:47;;;;;;;27.98;23.73;;;;;;;;;;1496904;39;20046;-57
2021/06/19 01:08:49;;;;;;;26.90;24.10;;;;;;;;;;1496964;39;20040;-57
2021/06/19 01:09:50;;;;;;;25.92;23.13;;;;;;;;;;1496903;39;20023;-57
2021/06/19 01:10:54;;;;;;;29.83;24.58;;;;;;;;;;1496984;39;20376;-57
2021/06/19 01:11:55;;;;;;;26.13;23.33;;;;;;;;;;1496910;39;20023;-58
2021/06/19 01:12:59;;;;;;;28.83;24.35;;;;;;;;;;1496965;39;20074;-57
2021/06/19 01:14:00;;;;;;;27.52;24.13;;;;;;;;;;1496964;39;20343;-57
2021/06/19 01:15:02;;;;;;;28.70;23.88;;;;;;;;;;1497149;39;20028;-57
2021/06/19 01:16:05;;;;;;;26.42;22.05;;;;;;;;;;1497021;39;20031;-57
2021/06/19 01:17:07;;;;;;;26.23;23.40;;;;;;;;;;1496943;39;20387;-58
2021/06/19 01:18:08;;;;;;;25.73;22.90;;;;;;;;;;1497053;39;20027;-57
2021/06/19 01:19:09;;;;;;;30.23;24.40;;;;;;;;;;1497003;39;20027;-57
2021/06/19 01:20:13;;;;;;;25.00;22.23;;;;;;;;;;1496929;39;20035;-57
2021/06/19 01:21:16;;;;;;;26.08;22.88;;;;;;;;;;1497089;39;20031;-56
2021/06/19 01:22:17;;;;;;;26.45;23.33;;;;;;;;;;1496897;39;20390;-57
2021/06/19 01:23:19;;;;;;;25.27;22.35;;;;;;;;;;1497069;39;20111;-57
2021/06/19 01:24:22;;;;;;;30.42;23.35;;;;;;;;;;1496912;39;20298;-58
2021/06/19 01:25:27;;;;;;;26.85;23.35;;;;;;;;;;1497070;39;20027;-57
2021/06/19 01:26:31;;;;;;;27.15;23.50;;;;;;;;;;1497137;39;20027;-57
2021/06/19 01:27:32;;;;;;;28.05;23.08;;;;;;;;;;1497126;39;20039;-57
2021/06/19 01:28:34;;;;;;;25.95;23.10;;;;;;;;;;1496866;39;20035;-57
2021/06/19 01:29:35;;;;;;;28.00;22.40;;;;;;;;;;1497019;39;20035;-57
2021/06/19 01:30:38;;;;;;;28.55;22.63;;;;;;;;;;1496931;39;20294;-57
2021/06/19 01:31:39;;;;;;;25.55;21.83;;;;;;;;;;1497064;39;20140;-57
2021/06/19 01:32:42;;;;;;;25.80;22.77;;;;;;;;;;1496856;39;20112;-57
2021/06/19 01:33:44;;;;;;;28.45;23.88;;;;;;;;;;1496900;39;20380;-57
2021/06/19 01:34:46;;;;;;;28.35;24.30;;;;;;;;;;1496882;39;20036;-57
2021/06/19 01:35:47;;;;;;;26.83;23.92;;;;;;;;;;1497024;39;20050;-57
2021/06/19 01:36:49;;;;;;;25.75;22.52;;;;;;;;;;1496856;39;20027;-57
2021/06/19 01:37:52;;;;;;;26.15;22.95;;;;;;;;;;1496865;39;20027;-57
2021/06/19 01:38:55;;;;;;;26.50;21.85;;;;;;;;;;1496958;39;20039;-57
2021/06/19 01:40:03;;;;;;;29.45;22.15;;;;;;;;;;1496831;39;20073;-57
2021/06/19 01:41:13;;;;;;;24.48;21.90;;;;;;;;;;1497075;39;20039;-57
2021/06/19 01:42:13;;;;;;;23.27;20.65;;;;;;;;;;1497113;39;20027;-57
2021/06/19 01:43:15;;;;;;;24.77;22.08;;;;;;;;;;1497061;39;20406;-57
2021/06/19 01:44:16;;;;;;;24.15;21.63;;;;;;;;;;1497021;39;20027;-57
2021/06/19 01:45:20;;;;;;;25.80;21.05;;;;;;;;;;1496902;39;20054;-57
2021/06/19 01:46:21;;;;;;;26.58;21.35;;;;;;;;;;1496819;39;20467;-57
2021/06/19 01:47:23;;;;;;;26.17;21.55;;;;;;;;;;1496898;39;20040;-57
2021/06/19 01:48:23;;;;;;;25.05;21.98;;;;;;;;;;1496795;39;20402;-57
2021/06/19 01:49:32;;;;;;;25.05;22.38;;;;;;;;;;1497064;39;20028;-57
2021/06/19 01:50:34;;;;;;;27.02;22.42;;;;;;;;;;1497036;39;20035;-57
2021/06/19 01:51:36;;;;;;;26.38;23.08;;;;;;;;;;1496976;39;20135;-57
2021/06/19 01:52:37;;;;;;;26.10;23.35;;;;;;;;;;1496770;39;20024;-57
2021/06/19 01:53:39;;;;;;;25.65;22.85;;;;;;;;;;1496805;39;20027;-58
2021/06/19 01:54:40;;;;;;;25.08;22.48;;;;;;;;;;1496920;39;20268;-56
2021/06/19 01:55:43;;;;;;;25.70;23.02;;;;;;;;;;1496846;39;20038;-57
2021/06/19 01:56:46;;;;;;;25.42;22.75;;;;;;;;;;1496995;39;20031;-57
2021/06/19 01:57:51;;;;;;;26.05;23.23;;;;;;;;;;1496811;39;20089;-57
2021/06/19 01:58:53;;;;;;;28.98;23.70;;;;;;;;;;1497031;39;20031;-57
2021/06/19 02:00:00;;;;;;;25.90;21.63;;;;;;;;;;1496795;39;20075;-57
2021/06/19 02:01:03;;;;;;;24.77;22.02;;;;;;;;;;1496799;39;20373;-57
2021/06/19 02:02:04;;;;;;;25.45;22.73;;;;;;;;;;1496822;39;20382;-57
2021/06/19 02:03:08;;;;;;;24.77;22.17;;;;;;;;;;1496785;39;20027;-57
2021/06/19 02:04:08;;;;;;;26.20;22.77;;;;;;;;;;1496782;39;20038;-57
2021/06/19 02:05:12;;;;;;;25.33;22.63;;;;;;;;;;1496840;39;20028;-57
2021/06/19 02:06:14;;;;;;;29.80;23.75;;;;;;;;;;1496777;39;20023;-57
2021/06/19 02:07:15;;;;;;;27.02;24.00;;;;;;;;;;1497067;39;20023;-57
2021/06/19 02:08:20;;;;;;;25.63;22.63;;;;;;;;;;1496884;39;20283;-57
2021/06/19 02:09:21;;;;;;;26.08;23.27;;;;;;;;;;1496914;39;20038;-57
2021/06/19 02:10:25;;;;;;;26.23;23.35;;;;;;;;;;1496754;39;20302;-57
2021/06/19 02:11:26;;;;;;;28.38;23.27;;;;;;;;;;1496923;39;20024;-57
2021/06/19 02:12:29;;;;;;;25.17;22.58;;;;;;;;;;1496751;39;20024;-57
2021/06/19 02:13:31;;;;;;;26.52;23.70;;;;;;;;;;1496758;39;20027;-57
2021/06/19 02:14:32;;;;;;;27.40;24.42;;;;;;;;;;1496953;39;20085;-58
2021/06/19 02:15:35;;;;;;;26.73;23.35;;;;;;;;;;1496767;39;20031;-58
2021/06/19 02:16:37;;;;;;;25.73;22.77;;;;;;;;;;1497359;39;20031;-57
2021/06/19 02:17:38;;;;;;;26.35;23.70;;;;;;;;;;1497374;39;20031;-57
2021/06/19 02:18:40;;;;;;;27.10;23.75;;;;;;;;;;1497345;39;20047;-57
2021/06/19 02:19:41;;;;;;;27.33;22.98;;;;;;;;;;1497522;39;20079;-57
2021/06/19 02:20:43;;;;;;;26.08;23.23;;;;;;;;;;1497593;39;20027;-57
2021/06/19 02:21:44;;;;;;;27.25;22.92;;;;;;;;;;1497870;39;20067;-60
2021/06/19 02:22:45;;;;;;;26.23;22.45;;;;;;;;;;1497389;39;20023;-60
2021/06/19 02:23:47;;;;;;;25.30;22.65;;;;;;;;;;1497624;39;20034;-60
2021/06/19 02:24:48;;;;;;;29.08;23.88;;;;;;;;;;1497421;39;20034;-60
2021/06/19 02:25:52;;;;;;;24.40;21.77;;;;;;;;;;1497370;39;20042;-60
2021/06/19 02:27:09;;;;;;;25.25;21.70;;;;;;;;;;1497597;39;20030;-60
2021/06/19 02:28:12;;;;;;;27.70;21.95;;;;;;;;;;1497361;39;20384;-60
2021/06/19 02:29:13;;;;;;;25.95;22.90;;;;;;;;;;1497419;39;20023;-60
2021/06/19 02:30:16;;;;;;;26.27;23.55;;;;;;;;;;1496961;39;20023;-60
2021/06/19 02:31:17;;;;;;;25.58;22.67;;;;;;;;;;1496938;39;20034;-60
2021/06/19 02:32:19;;;;;;;25.70;22.48;;;;;;;;;;1497524;39;20024;-60
2021/06/19 02:33:20;;;;;;;28.50;23.08;;;;;;;;;;1497438;39;20023;-60
2021/06/19 02:34:22;;;;;;;24.30;21.73;;;;;;;;;;1497369;39;20031;-60
2021/06/19 02:35:25;;;;;;;24.75;21.02;;;;;;;;;;1497614;39;20034;-60
2021/06/19 02:36:26;;;;;;;24.27;21.73;;;;;;;;;;1497462;39;20067;-60
2021/06/19 02:37:27;;;;;;;25.05;22.45;;;;;;;;;;1497549;39;20034;-59
2021/06/19 02:38:29;;;;;;;23.70;21.30;;;;;;;;;;1497521;39;20043;-59
2021/06/19 02:39:30;;;;;;;26.17;20.95;;;;;;;;;;1497563;39;20027;-60
2021/06/19 02:40:32;;;;;;;23.75;21.20;;;;;;;;;;1497539;39;20023;-60
2021/06/19 02:41:33;;;;;;;26.63;20.60;;;;;;;;;;1497571;39;20034;-60
2021/06/19 02:42:35;;;;;;;23.50;19.73;;;;;;;;;;1497348;39;20294;-59
2021/06/19 02:43:37;;;;;;;23.02;20.05;;;;;;;;;;1497403;39;20023;-59
2021/06/19 02:44:39;;;;;;;21.73;18.63;;;;;;;;;;1497394;39;20083;-60
2021/06/19 02:45:40;;;;;;;24.98;19.38;;;;;;;;;;1497555;39;20027;-60
2021/06/19 02:46:42;;;;;;;22.58;18.90;;;;;;;;;;1497504;39;20390;-60
2021/06/19 02:47:44;;;;;;;24.42;19.50;;;;;;;;;;1497346;39;20405;-60
2021/06/19 02:48:46;;;;;;;23.42;19.85;;;;;;;;;;1497580;39;20043;-60
2021/06/19 02:49:47;;;;;;;23.20;19.05;;;;;;;;;;1497381;39;20387;-60
2021/06/19 02:50:49;;;;;;;21.58;19.15;;;;;;;;;;1497383;39;20027;-60
2021/06/19 02:51:50;;;;;;;22.05;18.75;;;;;;;;;;1497362;39;20023;-60
2021/06/19 02:52:52;;;;;;;21.73;19.15;;;;;;;;;;1497486;39;20028;-60
2021/06/19 02:53:53;;;;;;;22.88;18.80;;;;;;;;;;1497579;39;20034;-60
2021/06/19 02:54:55;;;;;;;22.02;19.80;;;;;;;;;;1497487;39;20294;-60
2021/06/19 02:55:57;;;;;;;21.23;18.98;;;;;;;;;;1497292;39;20032;-60
2021/06/19 02:56:58;;;;;;;21.35;18.92;;;;;;;;;;1497312;39;20023;-60
2021/06/19 02:58:01;;;;;;;21.88;18.05;;;;;;;;;;1496716;39;20304;-60
2021/06/19 02:59:03;;;;;;;19.92;17.92;;;;;;;;;;1496864;39;20031;-60
2021/06/19 03:00:05;;;;;;;20.52;18.33;;;;;;;;;;1497385;39;20031;-60
2021/06/19 03:01:08;;;;;;;22.08;18.98;;;;;;;;;;1497322;39;20387;-60
2021/06/19 03:02:09;;;;;;;21.02;18.25;;;;;;;;;;1497555;39;20046;-60
2021/06/19 03:03:11;;;;;;;21.77;18.95;;;;;;;;;;1497358;39;20087;-60
2021/06/19 03:04:13;;;;;;;22.58;18.90;;;;;;;;;;1497520;39;20037;-60
2021/06/19 03:05:18;;;;;;;21.58;18.40;;;;;;;;;;1497348;39;20299;-60
2021/06/19 03:06:19;;;;;;;22.70;18.20;;;;;;;;;;1497516;39;20032;-60
2021/06/19 03:07:20;;;;;;;21.23;18.40;;;;;;;;;;1497414;39;20276;-60
2021/06/19 03:08:21;;;;;;;21.85;18.42;;;;;;;;;;1497325;39;20119;-60
2021/06/19 03:09:23;;;;;;;21.50;18.88;;;;;;;;;;1497269;39;20104;-60
2021/06/19 03:10:26;;;;;;;22.08;17.98;;;;;;;;;;1497308;39;20062;-60
2021/06/19 03:11:28;;;;;;;20.42;17.88;;;;;;;;;;1497485;39;20030;-60
2021/06/19 03:12:29;;;;;;;20.42;17.75;;;;;;;;;;1497241;39;20028;-59
2021/06/19 03:13:31;;;;;;;20.00;17.90;;;;;;;;;;1497275;39;20027;-59
2021/06/19 03:14:33;;;;;;;26.85;23.05;;;;;;;;;;1497510;39;20038;-59
2021/06/19 03:15:36;;;;;;;23.33;20.88;;;;;;;;;;1497344;39;20409;-59
2021/06/19 03:16:37;;;;;;;23.05;19.45;;;;;;;;;;1497515;39;20047;-60
2021/06/19 03:17:39;;;;;;;20.73;17.95;;;;;;;;;;1497470;39;20072;-60
2021/06/19 03:18:40;;;;;;;19.95;17.85;;;;;;;;;;1497338;39;20035;-60
2021/06/19 03:19:41;;;;;;;19.48;17.38;;;;;;;;;;1497493;39;20027;-60
2021/06/19 03:20:42;;;;;;;21.52;18.05;;;;;;;;;;1497298;39;20303;-60
2021/06/19 03:21:45;;;;;;;19.98;17.00;;;;;;;;;;1497354;39;20031;-61
2021/06/19 03:22:49;;;;;;;21.65;18.48;;;;;;;;;;1497446;39;20030;-60
2021/06/19 03:23:51;;;;;;;19.02;16.92;;;;;;;;;;1497354;39;20027;-60
2021/06/19 03:24:51;;;;;;;19.58;17.55;;;;;;;;;;1497511;39;20036;-60
2021/06/19 03:25:53;;;;;;;20.80;17.88;;;;;;;;;;1497408;39;20284;-60
2021/06/19 03:26:55;;;;;;;19.30;17.27;;;;;;;;;;1497488;39;20024;-60
2021/06/19 03:27:57;;;;;;;18.38;16.58;;;;;;;;;;1497461;39;20027;-60
2021/06/19 03:28:58;;;;;;;19.45;17.45;;;;;;;;;;1497476;39;20034;-60
2021/06/19 03:30:01;;;;;;;21.02;18.17;;;;;;;;;;1497206;39;20413;-60
2021/06/19 03:31:02;;;;;;;18.75;16.95;;;;;;;;;;1497206;39;20028;-62
2021/06/19 03:32:05;;;;;;;19.70;17.42;;;;;;;;;;1497440;39;20371;-59
2021/06/19 03:33:08;;;;;;;21.25;17.90;;;;;;;;;;1497121;39;20092;-59
2021/06/19 03:34:10;;;;;;;18.88;16.92;;;;;;;;;;1497294;39;20349;-59
2021/06/19 03:35:11;;;;;;;18.60;16.75;;;;;;;;;;1497187;39;20153;-59
2021/06/19 03:36:13;;;;;;;19.35;17.33;;;;;;;;;;1497303;39;20055;-60
2021/06/19 03:37:14;;;;;;;21.10;18.35;;;;;;;;;;1497187;39;20031;-60
2021/06/19 03:38:16;;;;;;;19.48;17.48;;;;;;;;;;1497430;39;20031;-60
2021/06/19 03:39:17;;;;;;;20.65;17.45;;;;;;;;;;1497360;39;20023;-60
2021/06/19 03:40:20;;;;;;;20.08;17.15;;;;;;;;;;1497195;39;20106;-60
2021/06/19 03:41:21;;;;;;;20.48;18.05;;;;;;;;;;1497204;39;20023;-60
2021/06/19 03:42:22;;;;;;;20.42;16.52;;;;;;;;;;1497261;39;20031;-60
2021/06/19 03:43:24;;;;;;;19.05;16.83;;;;;;;;;;1497394;39;20031;-60
2021/06/19 03:44:26;;;;;;;21.63;17.05;;;;;;;;;;1497245;39;20027;-60
2021/06/19 03:45:31;;;;;;;20.90;16.67;;;;;;;;;;1497194;39;20383;-60
2021/06/19 03:46:32;;;;;;;20.17;17.52;;;;;;;;;;1497249;39;20015;-60
2021/06/19 03:47:34;;;;;;;19.90;16.27;;;;;;;;;;1497145;39;20445;-60
2021/06/19 03:48:35;;;;;;;18.55;15.90;;;;;;;;;;1497168;39;20046;-60
2021/06/19 03:49:36;;;;;;;22.30;17.02;;;;;;;;;;1497399;39;20028;-60
2021/06/19 03:50:37;;;;;;;19.38;15.98;;;;;;;;;;1497176;39;20031;-60
2021/06/19 03:51:39;;;;;;;20.63;16.90;;;;;;;;;;1497127;39;20027;-60
2021/06/19 03:52:40;;;;;;;20.15;16.70;;;;;;;;;;1497159;39;20071;-60
2021/06/19 03:53:42;;;;;;;18.60;16.52;;;;;;;;;;1497298;39;20031;-59
2021/06/19 03:54:43;;;;;;;19.80;16.83;;;;;;;;;;1497390;39;20028;-59
2021/06/19 03:55:45;;;;;;;21.33;16.08;;;;;;;;;;1497205;39;20380;-60
2021/06/19 03:56:46;;;;;;;20.88;16.50;;;;;;;;;;1497184;39;20038;-60
2021/06/19 03:57:48;;;;;;;22.23;16.08;;;;;;;;;;1497372;39;20031;-60
2021/06/19 03:58:48;;;;;;;22.55;15.93;;;;;;;;;;1497297;39;20031;-60
2021/06/19 03:59:50;;;;;;;18.80;16.08;;;;;;;;;;1497416;39;20268;-60
2021/06/19 04:00:54;;;;;;;20.75;16.92;;;;;;;;;;1497130;39;20284;-60
2021/06/19 04:01:54;;;;;;;18.90;16.50;;;;;;;;;;1497199;39;20034;-60
2021/06/19 04:02:57;;;;;;;18.25;16.13;;;;;;;;;;1497166;39;20394;-60
2021/06/19 04:03:58;;;;;;;18.33;15.77;;;;;;;;;;1497253;39;20027;-60
2021/06/19 04:04:59;;;;;;;21.15;16.42;;;;;;;;;;1497358;39;20028;-63
2021/06/19 04:06:01;;;;;;;18.52;16.15;;;;;;;;;;1496580;39;20036;-60
2021/06/19 04:07:03;;;;;;;20.40;16.35;;;;;;;;;;1496670;39;20090;-60
2021/06/19 04:08:05;;;;;;;20.92;16.80;;;;;;;;;;1497139;39;20023;-61
2021/06/19 04:09:06;;;;;;;21.30;16.60;;;;;;;;;;1497410;39;20028;-60
2021/06/19 04:10:09;;;;;;;18.63;16.38;;;;;;;;;;1497080;39;20034;-62
2021/06/19 04:11:13;;;;;;;17.63;15.80;;;;;;;;;;1497062;39;20031;-60
2021/06/19 04:12:15;;;;;;;19.00;16.77;;;;;;;;;;1496589;39;20081;-60
2021/06/19 04:13:16;;;;;;;20.65;16.25;;;;;;;;;;1496615;39;20107;-60
2021/06/19 04:14:18;;;;;;;21.35;16.17;;;;;;;;;;1497113;39;20039;-60
2021/06/19 04:15:20;;;;;;;21.05;16.50;;;;;;;;;;1497305;39;20031;-60
2021/06/19 04:16:23;;;;;;;18.95;15.73;;;;;;;;;;1497116;39;20487;-60
2021/06/19 04:17:24;;;;;;;17.98;15.77;;;;;;;;;;1497122;39;20387;-60
2021/06/19 04:18:26;;;;;;;19.05;15.57;;;;;;;;;;1497033;39;20048;-60
2021/06/19 04:19:26;;;;;;;19.77;16.92;;;;;;;;;;1497247;39;20111;-60
2021/06/19 04:20:28;;;;;;;18.30;16.25;;;;;;;;;;1497328;39;20302;-60
2021/06/19 04:21:30;;;;;;;20.75;16.25;;;;;;;;;;1497083;39;20294;-60
2021/06/19 04:22:31;;;;;;;20.33;15.38;;;;;;;;;;1497181;39;20035;-60
2021/06/19 04:23:33;;;;;;;18.75;15.98;;;;;;;;;;1497097;39;20027;-60
2021/06/19 04:24:36;;;;;;;19.73;16.35;;;;;;;;;;1497147;39;20036;-60
2021/06/19 04:25:36;;;;;;;21.25;16.55;;;;;;;;;;1497079;39;20288;-60
2021/06/19 04:26:38;;;;;;;19.50;15.90;;;;;;;;;;1497156;39;20085;-60
2021/06/19 04:27:41;;;;;;;20.00;16.63;;;;;;;;;;1497282;39;20027;-60
2021/06/19 04:28:43;;;;;;;20.67;16.60;;;;;;;;;;1496984;39;20040;-60
2021/06/19 04:29:45;;;;;;;18.08;16.13;;;;;;;;;;1497018;39;20414;-61
2021/06/19 04:30:47;;;;;;;22.33;17.20;;;;;;;;;;1497099;39;20390;-61
2021/06/19 04:31:49;;;;;;;19.83;16.17;;;;;;;;;;1497259;39;20023;-60
2021/06/19 04:32:52;;;;;;;20.38;16.50;;;;;;;;;;1497229;39;20145;-60
2021/06/19 04:33:52;;;;;;;17.77;15.60;;;;;;;;;;1497167;39;20035;-60
2021/06/19 04:34:54;;;;;;;20.02;16.33;;;;;;;;;;1497046;39;20040;-60
2021/06/19 04:35:56;;;;;;;17.27;15.45;;;;;;;;;;1497233;39;20023;-60
2021/06/19 04:36:57;;;;;;;20.30;15.25;;;;;;;;;;1497103;39;20019;-60
2021/06/19 04:37:59;;;;;;;19.00;15.55;;;;;;;;;;1497084;39;20027;-60
2021/06/19 04:39:01;;;;;;;19.02;15.57;;;;;;;;;;1496922;39;20043;-60
2021/06/19 04:40:08;;;;;;;18.83;15.13;;;;;;;;;;1497222;39;20023;-60
2021/06/19 04:41:21;;;;;;;21.27;15.27;;;;;;;;;;1497114;39;20031;-60
2021/06/19 04:42:24;;;;;;;16.50;14.45;;;;;;;;;;1497162;39;20295;-60
2021/06/19 04:43:30;;;;;;;21.00;15.15;;;;;;;;;;1497092;39;20027;-60
2021/06/19 04:44:43;;;;;;;20.15;15.05;;;;;;;;;;1497232;39;20023;-60
2021/06/19 04:45:45;;;;;;;17.08;14.45;;;;;;;;;;1497164;39;20038;-60
2021/06/19 04:46:46;;;;;;;17.88;14.60;;;;;;;;;;1497219;39;20024;-60
2021/06/19 04:47:49;;;;;;;16.83;14.27;;;;;;;;;;1497036;39;20299;-60
2021/06/19 04:48:52;;;;;;;16.40;14.70;;;;;;;;;;1497194;39;20034;-60
2021/06/19 04:49:54;;;;;;;20.90;15.18;;;;;;;;;;1497116;39;20054;-60
2021/06/19 04:50:55;;;;;;;17.27;14.57;;;;;;;;;;1497255;39;20035;-60
2021/06/19 04:51:56;;;;;;;16.83;14.98;;;;;;;;;;1497016;39;20027;-60
2021/06/19 04:52:58;;;;;;;18.65;14.18;;;;;;;;;;1497138;39;20112;-60
2021/06/19 04:53:59;;;;;;;18.10;14.10;;;;;;;;;;1496962;39;20402;-60
2021/06/19 04:55:03;;;;;;;18.00;14.60;;;;;;;;;;1497148;39;20023;-60
2021/06/19 04:56:05;;;;;;;18.33;14.68;;;;;;;;;;1496958;39;20024;-60
2021/06/19 04:57:08;;;;;;;17.45;14.35;;;;;;;;;;1496968;39;20039;-61
2021/06/19 04:58:11;;;;;;;17.10;13.57;;;;;;;;;;1497016;39;20023;-60
2021/06/19 04:59:12;;;;;;;18.90;14.13;;;;;;;;;;1496993;39;20391;-60
2021/06/19 05:00:14;;;;;;;16.27;13.77;;;;;;;;;;1497095;39;20027;-60
2021/06/19 05:01:15;;;;;;;20.60;14.30;;;;;;;;;;1497094;39;20409;-60
2021/06/19 05:02:17;;;;;;;15.98;13.93;;;;;;;;;;1496988;39;20034;-60
2021/06/19 05:03:19;;;;;;;19.08;14.73;;;;;;;;;;1497028;39;20127;-60
2021/06/19 05:04:21;;;;;;;16.45;13.90;;;;;;;;;;1497269;39;20038;-60
2021/06/19 05:05:24;;;;;;;18.23;14.80;;;;;;;;;;1497246;39;20034;-61
2021/06/19 05:06:25;;;;;;;21.38;13.40;;;;;;;;;;1497014;39;20398;-61
2021/06/19 05:07:27;;;;;;;19.25;13.95;;;;;;;;;;1497191;39;20031;-60
2021/06/19 05:08:28;;;;;;;19.35;13.82;;;;;;;;;;1497197;39;20127;-57
2021/06/19 05:09:29;;;;;;;18.70;14.23;;;;;;;;;;1496944;39;20036;-57
2021/06/19 05:10:31;;;;;;;17.33;13.77;;;;;;;;;;1497012;39;20027;-58
2021/06/19 05:11:34;;;;;;;17.45;13.75;;;;;;;;;;1497096;39;20030;-57
2021/06/19 05:12:36;;;;;;;17.15;13.63;;;;;;;;;;1497189;39;20107;-58
2021/06/19 05:13:38;;;;;;;18.48;13.35;;;;;;;;;;1496869;39;20300;-57
2021/06/19 05:14:39;;;;;;;20.33;14.38;;;;;;;;;;1496941;39;20081;-58
2021/06/19 05:15:41;;;;;;;17.73;14.07;;;;;;;;;;1497019;39;20036;-58
2021/06/19 05:16:41;;;;;;;20.00;14.48;;;;;;;;;;1496960;39;20027;-58
2021/06/19 05:17:43;;;;;;;18.58;14.20;;;;;;;;;;1497041;39;20027;-57
2021/06/19 05:18:45;;;;;;;19.75;13.73;;;;;;;;;;1496928;39;20035;-57
2021/06/19 05:19:48;;;;;;;16.48;13.38;;;;;;;;;;1497084;39;20038;-57
2021/06/19 05:20:49;;;;;;;17.98;13.25;;;;;;;;;;1496931;39;20031;-58
2021/06/19 05:21:51;;;;;;;16.63;13.63;;;;;;;;;;1497072;39;20039;-58
2021/06/19 05:22:52;;;;;;;18.98;13.60;;;;;;;;;;1497114;39;20028;-58
2021/06/19 05:23:54;;;;;;;16.75;13.40;;;;;;;;;;1497136;39;20023;-57
2021/06/19 05:24:54;;;;;;;18.17;13.30;;;;;;;;;;1496943;39;20023;-57
2021/06/19 05:25:56;;;;;;;19.13;13.40;;;;;;;;;;1497076;39;20031;-58
2021/06/19 05:26:57;;;;;;;19.67;13.65;;;;;;;;;;1496978;39;20054;-58
2021/06/19 05:27:59;;;;;;;17.38;13.38;;;;;;;;;;1496944;39;20031;-58
2021/06/19 05:29:00;;;;;;;20.92;12.95;;;;;;;;;;1496881;39;20387;-58
2021/06/19 05:30:01;;;;;;;18.33;13.05;;;;;;;;;;1496985;39;20023;-58
2021/06/19 05:31:03;;;;;;;19.15;13.98;;;;;;;;;;1496912;39;20023;-58
2021/06/19 05:32:06;;;;;;;16.20;13.20;;;;;;;;;;1497090;39;20030;-58
2021/06/19 05:33:07;;;;;;;18.42;12.93;;;;;;;;;;1496896;39;20031;-58
2021/06/19 05:34:10;;;;;;;19.17;13.70;;;;;;;;;;1496819;39;20035;-58
2021/06/19 05:35:12;;;;;;;17.75;12.95;;;;;;;;;;1496829;39;20023;-58
2021/06/19 05:36:13;;;;;;;17.67;13.85;;;;;;;;;;1496980;39;20166;-58
2021/06/19 05:37:14;;;;;;;16.58;13.30;;;;;;;;;;1497078;39;20027;-58
2021/06/19 05:38:18;;;;;;;20.05;13.52;;;;;;;;;;1497016;39;20314;-58
2021/06/19 05:39:19;;;;;;;17.65;13.10;;;;;;;;;;1497069;39;20042;-58
2021/06/19 05:40:21;;;;;;;20.15;13.20;;;;;;;;;;1497089;39;20379;-58
2021/06/19 05:41:22;;;;;;;17.77;13.20;;;;;;;;;;1497041;39;20028;-58
2021/06/19 05:42:23;;;;;;;17.42;13.00;;;;;;;;;;1497042;39;20066;-56
2021/06/19 05:43:25;;;;;;;16.42;12.98;;;;;;;;;;1496810;39;20027;-58
2021/06/19 05:44:27;;;;;;;16.92;13.02;;;;;;;;;;1497177;39;20027;-58
2021/06/19 05:45:28;;;;;;;17.45;12.43;;;;;;;;;;1497037;39;20034;-57
2021/06/19 05:46:30;;;;;;;18.20;12.98;;;;;;;;;;1496908;39;20027;-58
2021/06/19 05:47:31;;;;;;;17.02;12.68;;;;;;;;;;1496832;39;20027;-58
2021/06/19 05:48:33;;;;;;;20.00;13.13;;;;;;;;;;1497005;39;20073;-57
2021/06/19 05:49:35;;;;;;;20.50;13.32;;;;;;;;;;1497077;39;20020;-57
2021/06/19 05:50:37;;;;;;;19.02;12.43;;;;;;;;;;1496818;39;20083;-57
2021/06/19 05:51:38;;;;;;;17.73;12.68;;;;;;;;;;1497440;39;20030;-57
2021/06/19 05:52:41;;;;;;;17.02;13.25;;;;;;;;;;1497482;39;20408;-58
2021/06/19 05:53:42;;;;;;;17.35;13.50;;;;;;;;;;1497404;39;20027;-58
2021/06/19 05:54:44;;;;;;;23.17;13.07;;;;;;;;;;1497474;39;20108;-58
2021/06/19 05:55:45;;;;;;;17.35;13.20;;;;;;;;;;1497463;39;20027;-57
2021/06/19 05:56:46;;;;;;;18.48;13.35;;;;;;;;;;1497649;39;20031;-57
2021/06/19 05:57:47;;;;;;;16.13;13.35;;;;;;;;;;1497433;39;20038;-57
2021/06/19 05:58:49;;;;;;;18.20;12.75;;;;;;;;;;1497574;39;20035;-58
2021/06/19 05:59:50;;;;;;;20.33;12.90;;;;;;;;;;1497431;39;20031;-58
2021/06/19 06:00:51;;;;;;;17.67;13.52;;;;;;;;;;1497459;39;20027;-57